createdAt,value
2019-01-26T00:00:49.976Z,6.90
2019-01-26T00:03:18.678Z,7.00
2019-01-26T00:05:47.363Z,7.20
2019-01-26T00:08:16.054Z,7.10
2019-01-26T00:10:44.753Z,7.10
2019-01-26T00:13:13.427Z,7.20
2019-01-26T00:15:42.375Z,7.00
2019-01-26T00:18:11.075Z,7.00
2019-01-26T00:20:39.784Z,6.80
2019-01-26T00:23:08.461Z,6.80
2019-01-26T00:25:37.158Z,7.10
2019-01-26T00:28:05.835Z,7.00
2019-01-26T00:30:34.671Z,7.10
2019-01-26T00:33:03.343Z,7.20
2019-01-26T00:35:32.079Z,7.00
2019-01-26T00:38:00.782Z,7.10
2019-01-26T00:40:29.488Z,7.20
2019-01-26T00:42:58.157Z,7.30
2019-01-26T00:45:26.851Z,7.10
2019-01-26T00:47:55.523Z,7.30
2019-01-26T00:50:24.252Z,7.10
2019-01-26T00:52:52.917Z,7.30
2019-01-26T00:55:21.623Z,7.30
2019-01-26T00:57:50.311Z,7.40
2019-01-26T01:00:23.187Z,7.30
2019-01-26T01:02:51.914Z,7.40
2019-01-26T01:05:20.721Z,7.30
2019-01-26T01:07:49.560Z,7.10
2019-01-26T01:10:21.381Z,7.50
2019-01-26T01:12:50.223Z,7.40
2019-01-26T01:15:22.818Z,7.20
2019-01-26T01:17:51.489Z,7.10
2019-01-26T01:20:20.595Z,7.00
2019-01-26T01:22:49.277Z,7.40
2019-01-26T01:25:17.968Z,7.40
2019-01-26T01:27:46.750Z,7.10
2019-01-26T01:30:23.292Z,7.30
2019-01-26T01:32:51.977Z,7.20
2019-01-26T01:35:20.669Z,7.10
2019-01-26T01:37:49.352Z,7.20
2019-01-26T01:40:19.267Z,7.40
2019-01-26T01:42:48.153Z,7.60
2019-01-26T01:45:22.157Z,7.50
2019-01-26T01:47:50.904Z,7.60
2019-01-26T01:50:19.830Z,7.60
2019-01-26T01:52:48.533Z,7.40
2019-01-26T01:55:17.220Z,7.60
2019-01-26T01:57:45.923Z,7.70
2019-01-26T02:00:25.478Z,7.50
2019-01-26T02:02:54.178Z,7.70
2019-01-26T02:05:22.904Z,7.40
2019-01-26T02:07:51.675Z,7.40
2019-01-26T02:10:22.308Z,7.90
2019-01-26T02:12:50.975Z,7.50
2019-01-26T02:15:19.676Z,7.70
2019-01-26T02:17:48.429Z,7.80
2019-01-26T02:20:20.038Z,7.80
2019-01-26T02:22:48.820Z,7.90
2019-01-26T02:25:17.751Z,8.00
2019-01-26T02:27:46.471Z,8.00
2019-01-26T02:30:17.884Z,7.80
2019-01-26T02:32:46.699Z,8.00
2019-01-26T02:35:15.929Z,7.80
2019-01-26T02:37:44.627Z,7.80
2019-01-26T02:40:15.209Z,7.80
2019-01-26T02:42:43.886Z,7.70
2019-01-26T02:45:14.661Z,8.00
2019-01-26T02:47:44.018Z,8.10
2019-01-26T02:50:14.933Z,7.90
2019-01-26T02:52:43.640Z,8.00
2019-01-26T02:55:12.710Z,7.90
2019-01-26T02:57:41.471Z,7.90
2019-01-26T03:00:15.909Z,7.90
2019-01-26T03:02:44.626Z,7.80
2019-01-26T03:05:13.615Z,8.20
2019-01-26T03:07:42.320Z,8.20
2019-01-26T03:10:16.397Z,8.10
2019-01-26T03:12:46.017Z,7.90
2019-01-26T03:15:19.622Z,8.30
2019-01-26T03:17:48.341Z,7.90
2019-01-26T03:20:18.102Z,8.10
2019-01-26T03:22:46.827Z,8.10
2019-01-26T03:25:16.318Z,8.30
2019-01-26T03:27:45.271Z,8.10
2019-01-26T03:30:19.405Z,8.20
2019-01-26T03:32:48.124Z,8.20
2019-01-26T03:35:16.818Z,8.30
2019-01-26T03:37:45.553Z,8.20
2019-01-26T03:40:16.966Z,8.40
2019-01-26T03:42:45.732Z,8.20
2019-01-26T03:45:16.108Z,8.10
2019-01-26T03:47:45.071Z,8.10
2019-01-26T03:50:15.693Z,8.10
2019-01-26T03:52:44.388Z,8.20
2019-01-26T03:55:18.913Z,8.50
2019-01-26T03:57:47.589Z,8.30
2019-01-26T04:00:18.487Z,8.20
2019-01-26T04:02:47.163Z,8.30
2019-01-26T04:05:15.998Z,8.50
2019-01-26T04:07:44.731Z,8.20
2019-01-26T04:10:14.955Z,8.10
2019-01-26T04:12:43.619Z,8.40
2019-01-26T04:15:14.909Z,8.30
2019-01-26T04:17:43.581Z,8.20
2019-01-26T04:20:18.243Z,8.20
2019-01-26T04:22:47.009Z,8.20
2019-01-26T04:25:15.750Z,8.20
2019-01-26T04:27:44.507Z,7.90
2019-01-26T04:30:15.920Z,8.30
2019-01-26T04:32:44.700Z,8.20
2019-01-26T04:35:13.371Z,8.00
2019-01-26T04:37:42.025Z,8.20
2019-01-26T04:40:15.925Z,8.20
2019-01-26T04:42:44.633Z,8.30
2019-01-26T04:45:16.016Z,8.40
2019-01-26T04:47:44.714Z,8.30
2019-01-26T04:50:15.603Z,8.20
2019-01-26T04:52:44.282Z,8.10
2019-01-26T04:55:13.399Z,8.30
2019-01-26T04:57:42.099Z,8.50
2019-01-26T05:00:19.511Z,8.30
2019-01-26T05:02:48.182Z,8.40
2019-01-26T05:05:17.111Z,8.40
2019-01-26T05:07:45.784Z,8.60
2019-01-26T05:10:19.655Z,8.30
2019-01-26T05:12:48.435Z,8.30
2019-01-26T05:15:17.907Z,8.40
2019-01-26T05:17:46.635Z,8.20
2019-01-26T05:20:25.424Z,8.30
2019-01-26T05:22:54.141Z,8.30
2019-01-26T05:25:22.919Z,8.30
2019-01-26T05:27:51.867Z,8.10
2019-01-26T05:30:25.708Z,8.50
2019-01-26T05:32:54.562Z,8.20
2019-01-26T05:35:23.371Z,8.40
2019-01-26T05:37:52.067Z,8.30
2019-01-26T05:40:20.728Z,8.60
2019-01-26T05:42:49.438Z,8.20
2019-01-26T05:45:20.680Z,8.30
2019-01-26T05:47:49.791Z,8.50
2019-01-26T05:50:20.677Z,8.30
2019-01-26T05:52:49.577Z,8.30
2019-01-26T05:55:18.344Z,8.50
2019-01-26T05:57:47.051Z,8.40
2019-01-26T06:00:25.402Z,8.60
2019-01-26T06:02:54.171Z,8.40
2019-01-26T06:05:22.868Z,8.40
2019-01-26T06:07:51.598Z,8.50
2019-01-26T06:10:20.291Z,8.50
2019-01-26T06:12:48.955Z,8.70
2019-01-26T06:15:17.659Z,8.30
2019-01-26T06:17:46.342Z,8.80
2019-01-26T06:20:16.606Z,8.60
2019-01-26T06:22:45.305Z,8.60
2019-01-26T06:25:16.681Z,8.70
2019-01-26T06:27:45.609Z,8.70
2019-01-26T06:30:17.152Z,8.60
2019-01-26T06:32:45.839Z,8.70
2019-01-26T06:35:15.049Z,8.80
2019-01-26T06:37:43.754Z,8.60
2019-01-26T06:40:15.161Z,8.60
2019-01-26T06:42:43.862Z,8.60
2019-01-26T06:45:14.748Z,8.70
2019-01-26T06:47:43.426Z,8.70
2019-01-26T06:50:15.033Z,8.60
2019-01-26T06:52:43.904Z,8.60
2019-01-26T06:55:12.668Z,8.80
2019-01-26T06:57:41.386Z,8.70
2019-01-26T07:00:13.026Z,8.60
2019-01-26T07:02:41.746Z,8.60
2019-01-26T07:05:12.657Z,8.70
2019-01-26T07:07:41.318Z,8.90
2019-01-26T07:10:10.734Z,8.80
2019-01-26T07:12:39.441Z,8.80
2019-01-26T07:15:12.458Z,9.00
2019-01-26T07:17:41.154Z,9.00
2019-01-26T07:20:12.657Z,8.70
2019-01-26T07:22:41.327Z,8.90
2019-01-26T07:25:10.148Z,8.90
2019-01-26T07:27:38.821Z,8.60
2019-01-26T07:30:16.322Z,8.80
2019-01-26T07:32:45.015Z,8.80
2019-01-26T07:35:13.846Z,8.80
2019-01-26T07:37:42.555Z,8.80
2019-01-26T07:40:14.200Z,8.80
2019-01-26T07:42:42.915Z,8.80
2019-01-26T07:45:12.774Z,8.70
2019-01-26T07:47:41.504Z,8.80
2019-01-26T07:50:13.498Z,8.90
2019-01-26T07:52:42.245Z,9.00
2019-01-26T07:55:11.403Z,8.80
2019-01-26T07:57:40.100Z,8.80
2019-01-26T08:00:14.900Z,8.90
2019-01-26T08:02:43.600Z,8.80
2019-01-26T08:05:12.888Z,9.00
2019-01-26T08:07:41.609Z,8.80
2019-01-26T08:10:16.088Z,8.70
2019-01-26T08:12:44.762Z,8.80
2019-01-26T08:15:16.306Z,8.80
2019-01-26T08:17:44.995Z,8.60
2019-01-26T08:20:16.403Z,9.00
2019-01-26T08:22:45.188Z,8.70
2019-01-26T08:25:13.964Z,8.70
2019-01-26T08:27:42.692Z,9.10
2019-01-26T08:30:14.369Z,9.10
2019-01-26T08:32:43.020Z,8.90
2019-01-26T08:35:11.752Z,8.80
2019-01-26T08:37:40.456Z,8.80
2019-01-26T08:40:12.059Z,8.70
2019-01-26T08:42:40.751Z,8.80
2019-01-26T08:45:11.765Z,8.60
2019-01-26T08:47:40.640Z,8.60
2019-01-26T08:50:12.033Z,8.60
2019-01-26T08:52:40.734Z,8.70
2019-01-26T08:55:17.847Z,9.00
2019-01-26T08:57:41.346Z,9.00
2019-01-26T09:00:16.951Z,9.00
2019-01-26T09:02:53.498Z,9.10
2019-01-26T09:05:23.955Z,8.80
2019-01-26T09:07:52.667Z,8.80
2019-01-26T09:10:21.366Z,8.70
2019-01-26T09:12:50.095Z,9.00
2019-01-26T09:15:18.790Z,8.70
2019-01-26T09:17:47.478Z,9.10
2019-01-26T09:20:17.105Z,9.10
2019-01-26T09:22:45.763Z,9.10
2019-01-26T09:25:14.584Z,9.10
2019-01-26T09:27:43.557Z,9.20
2019-01-26T09:30:15.211Z,8.90
2019-01-26T09:32:43.884Z,8.90
2019-01-26T09:35:12.598Z,9.10
2019-01-26T09:37:41.315Z,9.10
2019-01-26T09:40:18.475Z,8.90
2019-01-26T09:42:47.203Z,8.80
2019-01-26T09:45:17.874Z,8.80
2019-01-26T09:47:46.676Z,8.70
2019-01-26T09:50:15.887Z,8.80
2019-01-26T09:52:44.571Z,9.00
2019-01-26T09:55:15.718Z,8.80
2019-01-26T09:57:44.460Z,8.60
2019-01-26T10:00:21.713Z,8.80
2019-01-26T10:02:50.632Z,8.50
2019-01-26T10:05:19.431Z,8.60
2019-01-26T10:07:49.251Z,8.60
2019-01-26T10:10:18.939Z,8.60
2019-01-26T10:12:47.585Z,8.70
2019-01-26T10:15:18.998Z,8.80
2019-01-26T10:17:47.686Z,8.80
2019-01-26T10:20:19.416Z,8.60
2019-01-26T10:22:48.087Z,8.80
2019-01-26T10:25:18.359Z,8.80
2019-01-26T10:27:47.030Z,8.80
2019-01-26T10:30:23.163Z,8.60
2019-01-26T10:32:51.849Z,8.70
2019-01-26T10:35:21.072Z,8.60
2019-01-26T10:37:49.768Z,8.90
2019-01-26T10:40:26.015Z,8.80
2019-01-26T10:42:54.733Z,8.70
2019-01-26T10:45:23.443Z,8.60
2019-01-26T10:47:52.249Z,9.00
2019-01-26T10:50:20.982Z,8.80
2019-01-26T10:52:49.830Z,8.70
2019-01-26T10:55:18.766Z,8.60
2019-01-26T10:57:47.436Z,9.00
2019-01-26T11:00:19.321Z,9.20
2019-01-26T11:02:48.036Z,9.20
2019-01-26T11:05:17.145Z,9.00
2019-01-26T11:07:45.862Z,9.00
2019-01-26T11:10:16.044Z,9.20
2019-01-26T11:12:44.760Z,9.10
2019-01-26T11:15:13.844Z,9.20
2019-01-26T11:17:42.576Z,9.00
2019-01-26T11:20:15.667Z,9.20
2019-01-26T11:22:44.378Z,9.40
2019-01-26T11:25:13.692Z,9.20
2019-01-26T11:27:42.525Z,9.10
2019-01-26T11:30:17.220Z,9.20
2019-01-26T11:32:46.096Z,9.10
2019-01-26T11:35:23.397Z,9.10
2019-01-26T11:37:52.107Z,9.20
2019-01-26T11:40:23.679Z,8.80
2019-01-26T11:42:52.867Z,9.20
2019-01-26T11:45:29.068Z,8.90
2019-01-26T11:48:14.205Z,9.00
2019-01-26T11:50:44.533Z,9.20
2019-01-26T11:53:13.273Z,9.20
2019-01-26T11:55:55.205Z,9.10
2019-01-26T11:58:23.916Z,8.90
2019-01-26T12:01:02.862Z,9.00
2019-01-26T12:03:41.931Z,9.00
2019-01-26T12:06:18.003Z,9.20
2019-01-26T12:08:46.903Z,9.20
2019-01-26T12:11:15.697Z,9.20
2019-01-26T12:13:44.415Z,9.30
2019-01-26T12:16:13.223Z,9.00
2019-01-26T12:18:41.929Z,9.40
2019-01-26T12:21:10.795Z,9.30
2019-01-26T12:23:39.499Z,9.50
2019-01-26T12:26:08.198Z,9.40
2019-01-26T12:28:36.933Z,9.50
2019-01-26T12:31:05.640Z,9.40
2019-01-26T12:33:34.308Z,9.60
2019-01-26T12:36:03.007Z,9.40
2019-01-26T12:38:31.737Z,9.60
2019-01-26T12:41:00.443Z,9.60
2019-01-26T12:43:29.167Z,9.70
2019-01-26T12:45:57.860Z,10.00
2019-01-26T12:48:26.555Z,9.80
2019-01-26T12:50:55.224Z,9.70
2019-01-26T12:53:23.935Z,9.60
2019-01-26T12:55:52.689Z,9.70
2019-01-26T12:58:21.446Z,9.70
2019-01-26T13:00:50.187Z,9.60
2019-01-26T13:03:18.901Z,9.70
2019-01-26T13:05:47.585Z,9.60
2019-01-26T13:08:16.382Z,9.90
2019-01-26T13:10:48.244Z,9.60
2019-01-26T13:13:17.042Z,9.80
2019-01-26T13:15:45.732Z,9.80
2019-01-26T13:18:14.625Z,9.80
2019-01-26T13:20:43.305Z,10.10
2019-01-26T13:23:12.000Z,9.90
2019-01-26T13:25:40.894Z,9.90
2019-01-26T13:28:09.605Z,10.00
2019-01-26T13:30:38.383Z,10.00
2019-01-26T13:33:07.155Z,10.00
2019-01-26T13:35:35.881Z,10.20
2019-01-26T13:38:04.887Z,10.00
2019-01-26T13:40:35.520Z,9.90
2019-01-26T13:43:04.432Z,9.80
2019-01-26T13:45:33.111Z,9.90
2019-01-26T13:48:01.843Z,10.10
2019-01-26T13:50:30.556Z,10.10
2019-01-26T13:52:59.293Z,10.10
2019-01-26T13:55:27.987Z,10.20
2019-01-26T13:57:56.705Z,10.20
2019-01-26T14:00:27.677Z,10.00
2019-01-26T14:02:56.507Z,10.20
2019-01-26T14:05:25.808Z,10.10
2019-01-26T14:07:54.674Z,10.10
2019-01-26T14:10:24.759Z,10.10
2019-01-26T14:12:53.435Z,9.90
2019-01-26T14:15:23.248Z,10.30
2019-01-26T14:17:54.871Z,9.80
2019-01-26T14:20:28.821Z,10.10
2019-01-26T14:22:57.521Z,9.90
2019-01-26T14:25:27.112Z,10.00
2019-01-26T14:27:57.266Z,10.10
2019-01-26T14:30:41.086Z,9.90
2019-01-26T14:33:09.754Z,10.00
2019-01-26T14:35:38.486Z,9.90
2019-01-26T14:38:07.204Z,10.30
2019-01-26T14:40:35.885Z,10.30
2019-01-26T14:43:04.963Z,10.00
2019-01-26T14:45:33.708Z,9.90
2019-01-26T14:48:02.381Z,10.00
2019-01-26T14:50:31.165Z,10.00
2019-01-26T14:52:59.880Z,10.10
2019-01-26T14:55:30.379Z,9.70
2019-01-26T14:57:59.406Z,9.90
2019-01-26T15:00:38.834Z,10.00
2019-01-26T15:03:07.538Z,9.80
2019-01-26T15:05:36.312Z,9.70
2019-01-26T15:08:05.159Z,9.70
2019-01-26T15:10:33.891Z,9.80
2019-01-26T15:13:02.614Z,9.80
2019-01-26T15:15:31.327Z,9.90
2019-01-26T15:18:00.094Z,9.70
2019-01-26T15:20:31.527Z,9.80
2019-01-26T15:23:00.193Z,9.80
2019-01-26T15:25:28.893Z,9.80
2019-01-26T15:27:57.608Z,9.90
2019-01-26T15:30:35.447Z,9.70
2019-01-26T15:33:04.791Z,9.70
2019-01-26T15:35:33.484Z,9.90
2019-01-26T15:38:02.267Z,10.00
2019-01-26T15:40:31.051Z,9.70
2019-01-26T15:42:59.751Z,9.70
2019-01-26T15:45:31.134Z,9.60
2019-01-26T15:47:59.872Z,9.50
2019-01-26T15:50:28.544Z,9.60
2019-01-26T15:52:57.251Z,9.70
2019-01-26T15:55:27.145Z,9.50
2019-01-26T15:57:55.856Z,9.30
2019-01-26T16:00:30.066Z,9.40
2019-01-26T16:02:58.786Z,9.60
2019-01-26T16:05:27.466Z,9.50
2019-01-26T16:07:56.355Z,9.50
2019-01-26T16:10:25.875Z,9.60
2019-01-26T16:12:57.636Z,9.70
2019-01-26T16:15:31.599Z,9.60
2019-01-26T16:18:00.518Z,9.60
2019-01-26T16:20:30.161Z,9.60
2019-01-26T16:22:59.451Z,9.60
2019-01-26T16:25:28.346Z,9.70
2019-01-26T16:27:57.069Z,9.50
2019-01-26T16:30:28.242Z,9.70
2019-01-26T16:32:56.985Z,9.80
2019-01-26T16:35:25.671Z,9.60
2019-01-26T16:37:54.386Z,9.70
2019-01-26T16:40:26.052Z,9.70
2019-01-26T16:42:54.725Z,9.60
2019-01-26T16:45:26.157Z,9.40
2019-01-26T16:47:55.051Z,9.60
2019-01-26T16:50:28.475Z,9.50
2019-01-26T16:52:57.164Z,9.60
2019-01-26T16:55:26.432Z,9.50
2019-01-26T16:57:55.140Z,9.30
2019-01-26T17:00:29.841Z,9.50
2019-01-26T17:02:58.553Z,9.60
2019-01-26T17:05:27.223Z,9.40
2019-01-26T17:07:56.060Z,9.50
2019-01-26T17:10:25.000Z,9.50
2019-01-26T17:12:53.690Z,9.40
2019-01-26T17:15:22.350Z,9.40
2019-01-26T17:17:51.070Z,9.50
2019-01-26T17:20:34.567Z,9.30
2019-01-26T17:22:59.243Z,9.50
2019-01-26T17:25:27.995Z,9.60
2019-01-26T17:27:56.747Z,9.20
2019-01-26T17:30:36.785Z,9.40
2019-01-26T17:33:07.502Z,9.20
2019-01-26T17:35:36.644Z,9.40
2019-01-26T17:38:06.484Z,9.50
2019-01-26T17:40:35.216Z,9.40
2019-01-26T17:43:04.032Z,9.30
2019-01-26T17:45:32.700Z,9.30
2019-01-26T17:48:01.928Z,9.50
2019-01-26T17:50:30.834Z,9.50
2019-01-26T17:53:00.261Z,9.50
2019-01-26T17:55:29.025Z,9.30
2019-01-26T17:57:57.918Z,9.30
2019-01-26T18:00:30.649Z,9.40
2019-01-26T18:03:02.198Z,9.50
2019-01-26T18:05:31.086Z,9.40
2019-01-26T18:07:59.819Z,9.60
2019-01-26T18:10:28.527Z,9.70
2019-01-26T18:12:57.711Z,9.40
2019-01-26T18:15:26.512Z,9.50
2019-01-26T18:17:55.223Z,9.30
2019-01-26T18:20:26.597Z,9.70
2019-01-26T18:22:55.333Z,9.60
2019-01-26T18:25:25.563Z,9.70
2019-01-26T18:27:54.270Z,9.60
2019-01-26T18:30:25.853Z,9.40
2019-01-26T18:32:54.622Z,9.50
2019-01-26T18:35:23.425Z,9.80
2019-01-26T18:37:52.097Z,9.30
2019-01-26T18:40:27.984Z,9.40
2019-01-26T18:42:56.756Z,9.50
2019-01-26T18:45:30.502Z,9.50
2019-01-26T18:47:59.285Z,9.20
2019-01-26T18:50:33.394Z,9.50
2019-01-26T18:53:02.263Z,9.30
2019-01-26T18:55:31.145Z,9.30
2019-01-26T18:58:00.007Z,9.50
2019-01-26T19:00:31.145Z,9.30
2019-01-26T19:03:03.248Z,9.40
2019-01-26T19:05:34.373Z,9.50
2019-01-26T19:08:03.076Z,9.70
2019-01-26T19:10:31.776Z,9.70
2019-01-26T19:13:00.471Z,9.60
2019-01-26T19:15:29.880Z,9.40
2019-01-26T19:17:58.585Z,9.60
2019-01-26T19:20:27.288Z,9.60
2019-01-26T19:22:55.999Z,9.40
2019-01-26T19:25:24.668Z,9.60
2019-01-26T19:27:53.382Z,9.50
2019-01-26T19:30:23.272Z,9.40
2019-01-26T19:32:51.955Z,9.30
2019-01-26T19:35:20.798Z,9.70
2019-01-26T19:37:49.526Z,9.50
2019-01-26T19:40:20.556Z,9.70
2019-01-26T19:42:49.232Z,9.70
2019-01-26T19:45:20.005Z,9.20
2019-01-26T19:47:48.941Z,9.50
2019-01-26T19:50:22.794Z,9.40
2019-01-26T19:52:51.671Z,9.30
2019-01-26T19:55:22.463Z,9.60
2019-01-26T19:57:51.255Z,9.30
2019-01-26T20:00:20.057Z,9.30
2019-01-26T20:02:48.853Z,9.40
2019-01-26T20:05:23.089Z,9.40
2019-01-26T20:07:51.766Z,9.40
2019-01-26T20:10:20.877Z,9.20
2019-01-26T20:12:49.576Z,9.40
2019-01-26T20:15:22.515Z,9.50
2019-01-26T20:17:51.214Z,9.10
2019-01-26T20:20:35.298Z,9.30
2019-01-26T20:23:04.383Z,9.50
2019-01-26T20:25:33.057Z,9.20
2019-01-26T20:28:01.871Z,9.30
2019-01-26T20:30:32.758Z,9.50
2019-01-26T20:33:01.457Z,9.30
2019-01-26T20:35:30.219Z,9.30
2019-01-26T20:37:59.046Z,9.00
2019-01-26T20:40:27.728Z,9.10
2019-01-26T20:42:56.444Z,9.00
2019-01-26T20:45:27.698Z,9.20
2019-01-26T20:47:56.403Z,9.30
2019-01-26T20:50:25.085Z,9.40
2019-01-26T20:52:53.957Z,9.30
2019-01-26T20:55:23.334Z,9.40
2019-01-26T20:57:52.681Z,9.10
2019-01-26T21:00:27.225Z,9.00
2019-01-26T21:02:55.945Z,9.30
2019-01-26T21:05:24.713Z,9.30
2019-01-26T21:07:53.406Z,9.20
2019-01-26T21:10:24.034Z,9.20
2019-01-26T21:12:52.687Z,9.00
2019-01-26T21:15:21.387Z,9.30
2019-01-26T21:17:50.141Z,9.10
2019-01-26T21:20:21.084Z,9.10
2019-01-26T21:22:49.750Z,9.00
2019-01-26T21:25:18.635Z,8.80
2019-01-26T21:27:47.412Z,9.00
2019-01-26T21:30:24.828Z,8.90
2019-01-26T21:32:53.800Z,9.00
2019-01-26T21:35:22.730Z,8.80
2019-01-26T21:37:51.434Z,9.10
2019-01-26T21:40:23.017Z,9.10
2019-01-26T21:42:51.714Z,8.90
2019-01-26T21:45:20.696Z,8.90
2019-01-26T21:47:49.426Z,9.00
2019-01-26T21:50:20.774Z,9.00
2019-01-26T21:52:49.548Z,9.10
2019-01-26T21:55:18.315Z,9.00
2019-01-26T21:57:47.011Z,9.00
2019-01-26T22:00:18.685Z,9.00
2019-01-26T22:02:47.456Z,9.10
2019-01-26T22:05:16.181Z,9.00
2019-01-26T22:07:44.863Z,8.90
2019-01-26T22:10:16.524Z,8.90
2019-01-26T22:12:48.322Z,9.10
2019-01-26T22:15:18.927Z,9.00
2019-01-26T22:17:47.709Z,9.00
2019-01-26T22:20:18.796Z,9.10
2019-01-26T22:22:49.235Z,9.00
2019-01-26T22:25:18.285Z,8.90
2019-01-26T22:27:48.517Z,8.90
2019-01-26T22:30:34.438Z,8.90
2019-01-26T22:33:03.104Z,9.20
2019-01-26T22:35:33.773Z,9.40
2019-01-26T22:38:02.742Z,8.90
2019-01-26T22:40:33.467Z,9.10
2019-01-26T22:43:02.335Z,8.80
2019-01-26T22:45:31.051Z,9.00
2019-01-26T22:48:00.021Z,9.20
2019-01-26T22:50:30.797Z,9.10
2019-01-26T22:52:59.519Z,8.90
2019-01-26T22:55:31.333Z,9.00
2019-01-26T22:58:00.082Z,9.00
2019-01-26T23:00:49.274Z,9.10
2019-01-26T23:03:19.746Z,9.20
2019-01-26T23:06:20.315Z,9.10
2019-01-26T23:08:49.426Z,9.10
2019-01-26T23:11:40.952Z,9.20
2019-01-26T23:14:12.538Z,9.10
2019-01-26T23:16:44.171Z,8.90
2019-01-26T23:19:20.427Z,9.00
2019-01-26T23:22:10.209Z,9.10
2019-01-26T23:24:44.953Z,9.20
2019-01-26T23:27:22.841Z,8.80
2019-01-26T23:30:03.621Z,9.00
2019-01-26T23:32:32.347Z,9.10
2019-01-26T23:35:01.608Z,8.80
2019-01-26T23:37:30.295Z,9.00
2019-01-26T23:39:58.990Z,9.00
2019-01-26T23:42:27.711Z,8.80
2019-01-26T23:44:56.372Z,8.90
2019-01-26T23:47:25.076Z,9.10
2019-01-26T23:49:53.740Z,9.00
2019-01-26T23:52:22.535Z,9.00
2019-01-26T23:54:51.227Z,9.00
2019-01-26T23:57:19.891Z,8.90
2019-01-26T23:59:48.755Z,9.10
